Air Quality Table

TIMESTAMP NO2 SO2 O3 PM10 PM2.5 CO TEMP HUM AIRPRES WS WD NO BENZENE
2022-11-26 01:00 31.01 µg/m3 0.44 µg/m3 37.27 µg/m3 31.92 µg/m3 11.05 µg/m3 0.36 mg/m3 16.76 °C 75.36 % 1,019.19 mbar 1.37 m/s 236.78 Deg 21.22 µg/m3 1.47 µg/m3
2022-11-25 01:00 8.68 µg/m3 -0.28 µg/m3 55.76 µg/m3 23.28 µg/m3 11.3 µg/m3 0.23 mg/m3 18.77 °C 78.95 % 1,014.30 mbar 3.66 m/s 296.9 Deg 2.52 µg/m3 0.5 µg/m3
2022-11-24 01:00 5.86 µg/m3 -0.27 µg/m3 59.32 µg/m3 14.2 µg/m3 6.57 µg/m3 0.2 mg/m3 18.02 °C 72.25 % 1,009.77 mbar 5.45 m/s 280.98 Deg 1.95 µg/m3 0.48 µg/m3
2022-11-23 01:00 5.87 µg/m3 -0.22 µg/m3 66.4 µg/m3 30.62 µg/m3 10.86 µg/m3 0.22 mg/m3 18.2 °C 62.79 % 1,009.64 mbar 7.43 m/s 262.1 Deg 1.88 µg/m3 0.47 µg/m3
2022-11-22 01:00 7.73 µg/m3 -0.01 µg/m3 64.31 µg/m3 13.62 µg/m3 5.46 µg/m3 0.22 mg/m3 17.54 °C 67.82 % 1,015.44 mbar 4.04 m/s 282.94 Deg 2.04 µg/m3 0.51 µg/m3
2022-11-21 01:00 7.97 µg/m3 4.83 µg/m3 58.06 µg/m3 27.28 µg/m3 9.01 µg/m3 0.26 mg/m3 17.28 °C 74.37 % 1,009.50 mbar 4.04 m/s 269.82 Deg 2.56 µg/m3 0.62 µg/m3
2022-11-20 01:00 17.02 µg/m3 10.64 µg/m3 42.28 µg/m3 64.29 µg/m3 18.56 µg/m3 0.32 mg/m3 21.84 °C 81.49 % 1,008.54 mbar 3.36 m/s 235.95 Deg 6.72 µg/m3 1.46 µg/m3
2022-11-19 01:00 15.02 µg/m3 6.25 µg/m3 46.43 µg/m3 26.78 µg/m3 8.51 µg/m3 0.29 mg/m3 21.57 °C 79.86 % 1,009.63 mbar 4.07 m/s 256.14 Deg 5.27 µg/m3 1 µg/m3
2022-11-18 01:00 18.92 µg/m3 0.52 µg/m3 47.01 µg/m3 24.27 µg/m3 8.96 µg/m3 0.33 mg/m3 20.13 °C 79.5 % 1,008.39 mbar 2.5 m/s 257.1 Deg 16.83 µg/m3 1.14 µg/m3
2022-11-17 01:00 21.95 µg/m3 0.74 µg/m3 42.68 µg/m3 34.59 µg/m3 11.84 µg/m3 0.32 mg/m3 20.74 °C 74.72 % 1,010.40 mbar 2.93 m/s 237.17 Deg 7 µg/m3 1.66 µg/m3
2022-11-16 01:00 32.24 µg/m3 5.26 µg/m3 32.33 µg/m3 18.91 µg/m3 7.66 µg/m3 0.26 mg/m3 19.83 °C 77.85 % 1,018.19 mbar 1.5 m/s 228.3 Deg 23 µg/m3 2.08 µg/m3
2022-11-15 01:00 31.03 µg/m3 0.76 µg/m3 26.26 µg/m3 20.5 µg/m3 7.53 µg/m3 0.17 mg/m3 18.35 °C 83.4 % 1,020.76 mbar 1.17 m/s 204.03 Deg 18.45 µg/m3 1.57 µg/m3
2022-11-14 01:00 27.39 µg/m3 0.71 µg/m3 37.39 µg/m3 14.8 µg/m3 6.57 µg/m3 0.19 mg/m3 18.58 °C 81.42 % 1,019.65 mbar 1.21 m/s 205.44 Deg 10.97 µg/m3 2.01 µg/m3
2022-11-13 01:00 28.56 µg/m3 0.8 µg/m3 41.21 µg/m3 17.76 µg/m3 9.63 µg/m3 0.16 mg/m3 18.27 °C 84.15 % 1,021.84 mbar 1.36 m/s 184.97 Deg 11.11 µg/m3 1.6 µg/m3
2022-11-12 01:00 29.37 µg/m3 0.82 µg/m3 43.91 µg/m3 14.89 µg/m3 6.37 µg/m3 0.17 mg/m3 19.37 °C 76.45 % 1,025.26 mbar 1.55 m/s 140.47 Deg 15.79 µg/m3 1.59 µg/m3
2022-11-11 01:00 41.02 µg/m3 1.06 µg/m3 26.79 µg/m3 16.59 µg/m3 5.97 µg/m3 0.2 mg/m3 18.67 °C 79.54 % 1,021.46 mbar 0.94 m/s 175.5 Deg 28.41 µg/m3 2.12 µg/m3
2022-11-10 01:00 43.76 µg/m3 1.15 µg/m3 28.53 µg/m3 19.97 µg/m3 7.93 µg/m3 0.19 mg/m3 18.68 °C 73.65 % 1,020.04 mbar 0.73 m/s 187.09 Deg 21.36 µg/m3 2.08 µg/m3
2022-11-09 01:00 34.2 µg/m3 0.94 µg/m3 30.28 µg/m3 15.75 µg/m3 5.11 µg/m3 0.18 mg/m3 18.26 °C 76.23 % 1,020.38 mbar 1.16 m/s 241.2 Deg 32.01 µg/m3 1.74 µg/m3
2022-11-08 01:00 18.75 µg/m3 0.42 µg/m3 47.16 µg/m3 12.55 µg/m3 4.27 µg/m3 0.15 mg/m3 19.49 °C 71.2 % 1,019.44 mbar 1.73 m/s 240.45 Deg 7.72 µg/m3 1.06 µg/m3
2022-11-07 01:00 7.92 µg/m3 0.2 µg/m3 59.82 µg/m3 14.88 µg/m3 5.89 µg/m3 0.07 mg/m3 19.81 °C 65.08 % 1,012.20 mbar 4.04 m/s 311.02 Deg 1.14 µg/m3 0.67 µg/m3
2022-11-06 01:00 8.96 µg/m3 0.11 µg/m3 62.74 µg/m3 13.81 µg/m3 5.39 µg/m3 0.09 mg/m3 17.8 °C 73.24 % 1,006.97 mbar 4.36 m/s 287.64 Deg 1.38 µg/m3 0.54 µg/m3
2022-11-05 01:00 17.2 µg/m3 0.68 µg/m3 56.62 µg/m3 32.51 µg/m3 13.43 µg/m3 0.19 mg/m3 22.8 °C 70.04 % 1,013.32 mbar 3.99 m/s 238.95 Deg 4.27 µg/m3 1.2 µg/m3
2022-11-04 01:00 24.56 µg/m3 0.69 µg/m3 37.11 µg/m3 27.26 µg/m3 11.21 µg/m3 0.13 mg/m3 21.08 °C 79.06 % 1,020.30 mbar 1.69 m/s 244 Deg 17.68 µg/m3 1.28 µg/m3
2022-11-03 01:00 25.47 µg/m3 5.5 µg/m3 36.52 µg/m3 23.21 µg/m3 11.18 µg/m3 0.16 mg/m3 21.26 °C 79.65 % 1,022.19 mbar 1.64 m/s 237.04 Deg 17.37 µg/m3 1.28 µg/m3
2022-11-02 01:00 20.54 µg/m3 -0.06 µg/m3 54.96 µg/m3 23.73 µg/m3 11.98 µg/m3 0.15 mg/m3 21.72 °C 75.04 % 1,022.17 mbar 1.95 m/s 198.46 Deg 6.84 µg/m3 1.01 µg/m3
2022-11-01 01:00 21.09 µg/m3 0 µg/m3 57.45 µg/m3 23.93 µg/m3 11.74 µg/m3 0.17 mg/m3 21.51 °C 72.34 % 1,020.78 mbar 1.99 m/s 177.26 Deg 9.38 µg/m3 1.14 µg/m3
2022-10-31 01:00 22.89 µg/m3 0.23 µg/m3 61.24 µg/m3 23.37 µg/m3 12.3 µg/m3 0.19 mg/m3 21.27 °C 72.53 % 1,020.35 mbar 1.98 m/s 110.59 Deg 6.61 µg/m3 1.65 µg/m3
2022-10-30 01:00 16.87 µg/m3 0.04 µg/m3 61.16 µg/m3 30.83 µg/m3 13.8 µg/m3 0.12 mg/m3 21.75 °C 76.34 % 1,021.54 mbar 2.46 m/s 104.09 Deg 2.26 µg/m3 1.27 µg/m3
2022-10-29 01:00 37.05 µg/m3 0.47 µg/m3 35.02 µg/m3 52.09 µg/m3 20.64 µg/m3 0.23 mg/m3 21.39 °C 83.94 % 1,023.41 mbar 1.12 m/s 164.58 Deg 28.01 µg/m3 2.3 µg/m3
2022-10-28 01:00 35.28 µg/m3 0.62 µg/m3 27.48 µg/m3 42.34 µg/m3 17.92 µg/m3 0.24 mg/m3 21.92 °C 83.15 % 1,023.45 mbar 0.74 m/s 176.74 Deg 42.88 µg/m3 2.28 µg/m3

It is to be noted that the data is provisional and subject to quality assurance procedures. For validated data kindly refer your request to contact.air@era.org.mt